Time;durP1;ratioP1;P1;durP2;ratioP2;P2;SDS_P1;SDS_P2;PMS_P1;PMS_P2;Temp;Humidity;BMP_temperature;BMP_pressure;BME280_temperature;BME280_humidity;BME280_pressure;Samples;Min_cycle;Max_cycle;Signal;HPM_P1;HPM_P2
2022/01/01 00:00:08;;;;;;;;;61.50;48.50;;;;;13.53;75.08;102333.00;4883354;29;49721;-71
2022/01/01 00:02:33;;;;;;;;;66.25;50.00;;;;;13.72;74.96;102360.91;4880680;29;49864;-71
2022/01/01 00:04:59;;;;;;;;;179.33;141.33;;;;;13.72;74.74;102376.75;4874820;29;49788;-71
2022/01/01 00:07:24;;;;;;;;;81.00;71.50;;;;;13.73;75.37;102376.78;4888271;29;49633;-72
2022/01/01 00:09:50;;;;;;;;;87.50;67.75;;;;;13.47;74.57;102324.88;4888636;29;49589;-72
2022/01/01 00:12:15;;;;;;;;;123.00;103.00;;;;;13.78;74.80;102370.75;4880539;28;52257;-72
2022/01/01 00:14:40;;;;;;;;;86.25;69.00;;;;;13.64;75.13;102347.44;4883888;28;49615;-71
2022/01/01 00:17:07;;;;;;;;;86.75;67.25;;;;;13.54;75.31;102324.22;4877860;29;49676;-71
2022/01/01 00:19:33;;;;;;;;;83.00;68.50;;;;;13.81;74.89;102365.59;4878038;29;49796;-71
2022/01/01 00:21:59;;;;;;;;;80.00;63.25;;;;;13.84;74.79;102374.50;4882543;29;49773;-72
2022/01/01 00:24:24;;;;;;;;;77.75;58.25;;;;;13.69;75.05;102345.84;4878128;29;49890;-71
2022/01/01 00:26:50;;;;;;;;;55.75;44.75;;;;;13.72;74.60;102337.16;4884603;29;49658;-72
2022/01/01 00:29:15;;;;;;;;;46.25;37.75;;;;;13.38;74.88;102271.78;4878543;29;49935;-71
2022/01/01 00:31:41;;;;;;;;;49.25;42.00;;;;;13.95;74.26;102364.28;4877461;29;50338;-71
2022/01/01 00:34:06;;;;;;;;;48.50;39.00;;;;;13.92;74.15;102362.44;4876990;29;49945;-71
2022/01/01 00:36:32;;;;;;;;;54.75;44.75;;;;;13.94;74.79;102373.94;4907236;28;49414;-71
2022/01/01 00:38:58;;;;;;;;;51.00;39.50;;;;;13.91;74.40;102371.22;4891095;29;49192;-72
2022/01/01 00:41:24;;;;;;;;;50.25;40.25;;;;;13.80;74.10;102350.56;4881229;29;49997;-71
2022/01/01 00:43:49;;;;;;;;;45.25;39.25;;;;;13.81;74.27;102350.66;4887485;29;50052;-71
2022/01/01 00:46:14;;;;;;;;;53.50;44.25;;;;;13.73;74.57;102339.84;4877622;29;50225;-72
2022/01/01 00:48:40;;;;;;;;;62.75;49.50;;;;;13.91;74.52;102375.59;4877545;29;49883;-72
2022/01/01 00:51:05;;;;;;;;;62.75;49.00;;;;;13.86;74.29;102370.16;4877058;29;55710;-72
2022/01/01 00:53:31;;;;;;;;;64.00;51.00;;;;;13.92;74.30;102375.66;4880226;29;49932;-70
2022/01/01 00:55:56;;;;;;;;;59.00;46.50;;;;;13.86;74.46;102356.06;4884696;29;49764;-70
2022/01/01 00:58:22;;;;;;;;;59.00;48.75;;;;;13.91;74.31;102375.59;4890578;29;49491;-70
2022/01/01 01:00:48;;;;;;;;;112.33;100.00;;;;;13.79;74.51;102348.78;4894541;29;50241;-69
2022/01/01 01:03:15;;;;;;;;;119.00;105.33;;;;;13.93;74.89;102365.97;4877554;29;49750;-71
2022/01/01 01:05:43;;;;;;;;;100.33;88.67;;;;;13.42;74.57;102271.06;4889358;28;49831;-71
2022/01/01 01:08:10;;;;;;;;;86.00;69.50;;;;;13.90;74.35;102357.97;4895822;28;50161;-71
2022/01/01 01:10:37;;;;;;;;;68.75;51.50;;;;;13.79;74.05;102343.50;4896562;29;50040;-71
2022/01/01 01:13:03;;;;;;;;;60.50;47.00;;;;;13.69;74.46;102335.28;4876936;28;49756;-70
2022/01/01 01:15:30;;;;;;;;;61.75;48.50;;;;;13.57;74.41;102308.50;4877249;29;49825;-70
2022/01/01 01:17:57;;;;;;;;;58.00;47.00;;;;;13.82;74.23;102351.53;4875842;29;50507;-70
2022/01/01 01:20:23;;;;;;;;;47.75;39.50;;;;;13.80;74.51;102350.56;4876846;29;50852;-70
2022/01/01 01:22:49;;;;;;;;;55.25;42.75;;;;;13.80;74.23;102355.84;4882031;29;49689;-71
2022/01/01 01:25:15;;;;;;;;;48.50;40.00;;;;;13.58;74.00;102331.41;4878263;29;49709;-70
2022/01/01 01:27:41;;;;;;;;;42.00;35.00;;;;;13.61;74.27;102339.44;4876824;29;49610;-70
2022/01/01 01:30:10;;;;;;;;;43.50;38.50;;;;;13.49;74.31;102331.09;4876491;29;50148;-71
2022/01/01 01:32:36;;;;;;;;;37.75;35.50;;;;;13.52;74.15;102333.84;4877364;29;49835;-73
2022/01/01 01:35:03;;;;;;;;;30.50;27.75;;;;;13.55;74.11;102346.25;4878116;29;49814;-71
2022/01/01 01:37:29;;;;;;;;;35.00;32.75;;;;;13.55;74.20;102348.88;4877086;29;49721;-71
2022/01/01 01:39:56;;;;;;;;;48.75;38.25;;;;;13.38;74.62;102335.09;4881198;29;49769;-71
2022/01/01 01:42:22;;;;;;;;;41.75;37.25;;;;;13.43;74.13;102357.28;4875014;29;49651;-72
2022/01/01 01:44:51;;;;;;;;;45.25;38.75;;;;;13.15;74.57;102314.09;4879969;29;49880;-70
2022/01/01 01:47:18;;;;;;;;;46.75;37.75;;;;;13.11;74.61;102314.81;4878654;29;49679;-71
2022/01/01 01:49:47;;;;;;;;;50.25;40.25;;;;;13.30;74.70;102355.03;4878344;29;51166;-70
2022/01/01 01:52:15;;;;;;;;;46.75;36.75;;;;;13.26;74.87;102354.03;4880246;29;49745;-71
2022/01/01 01:54:40;;;;;;;;;48.00;39.75;;;;;13.17;75.01;102356.31;4882949;29;49753;-70
2022/01/01 01:57:06;;;;;;;;;51.00;39.75;;;;;13.15;74.69;102356.28;4881460;29;49718;-70
2022/01/01 01:59:31;;;;;;;;;46.50;38.75;;;;;13.13;74.79;102354.44;4889970;29;49614;-70
2022/01/01 02:01:57;;;;;;;;;41.75;37.00;;;;;12.77;74.65;102304.81;4878869;29;49777;-71
2022/01/01 02:04:22;;;;;;;;;43.25;36.50;;;;;13.05;75.02;102361.16;4879617;29;50789;-70
2022/01/01 02:06:48;;;;;;;;;48.00;39.25;;;;;12.87;75.01;102329.75;4878816;29;50209;-71
2022/01/01 02:09:14;;;;;;;;;46.50;37.50;;;;;13.03;74.46;102374.28;4878809;29;49744;-71
2022/01/01 02:11:40;;;;;;;;;48.00;39.75;;;;;13.01;74.73;102368.03;4892792;29;50023;-71
2022/01/01 02:14:17;;;;;;;;;48.00;37.75;;;;;12.99;75.01;102361.81;4874552;29;49819;-71
2022/01/01 02:17:08;;;;;;;;;54.00;44.00;;;;;12.84;74.76;102348.09;4878293;29;49701;-70
2022/01/01 02:20:00;;;;;;;;;60.50;48.00;;;;;12.78;75.10;102348.75;4879266;29;49747;-71
2022/01/01 02:22:47;;;;;;;;;59.75;45.50;;;;;12.84;74.99;102361.28;4894179;29;49902;-71
2022/01/01 02:25:14;;;;;;;;;93.33;86.00;;;;;12.84;74.80;102363.91;4899126;28;50169;-71
2022/01/01 02:27:41;;;;;;;;;62.50;51.00;;;;;12.80;75.29;102356.72;4911064;28;49462;-71
2022/01/01 02:30:08;;;;;;;;;61.50;49.25;;;;;12.65;75.21;102343.88;4895793;28;49981;-72
2022/01/01 02:32:34;;;;;;;;;50.75;42.00;;;;;12.74;75.59;102359.13;4895345;28;49804;-72
2022/01/01 02:34:59;;;;;;;;;56.25;43.75;;;;;12.60;75.43;102337.53;4893984;29;50144;-72
2022/01/01 02:37:24;;;;;;;;;54.50;45.25;;;;;12.39;75.28;102299.84;4892725;29;50186;-72
2022/01/01 02:39:50;;;;;;;;;51.00;40.25;;;;;12.68;75.20;102337.81;4893645;29;50460;-71
2022/01/01 02:42:19;;;;;;;;;55.50;42.75;;;;;12.62;75.12;102330.56;4893782;28;50129;-71
2022/01/01 02:44:45;;;;;;;;;48.25;41.75;;;;;12.61;75.28;102332.31;4892532;28;49727;-71
2022/01/01 02:47:10;;;;;;;;;46.25;38.75;;;;;12.30;75.37;102279.34;4894081;28;50237;-71
2022/01/01 02:49:36;;;;;;;;;42.75;37.75;;;;;12.63;75.21;102328.84;4893784;29;50311;-71
2022/01/01 02:52:02;;;;;;;;;47.00;36.50;;;;;12.61;75.10;102341.97;4893644;29;49645;-71
2022/01/01 02:54:27;;;;;;;;;48.75;42.25;;;;;12.56;75.47;102341.81;4893638;28;49696;-71
2022/01/01 02:56:53;;;;;;;;;51.25;43.00;;;;;12.55;75.13;102344.38;4893625;28;49642;-70
2022/01/01 02:59:18;;;;;;;;;48.50;40.50;;;;;12.38;75.13;102327.03;4893406;29;49811;-71
2022/01/01 03:01:43;;;;;;;;;42.25;37.50;;;;;12.54;74.83;102356.63;4893573;29;49837;-76
2022/01/01 03:04:09;;;;;;;;;53.75;39.00;;;;;12.51;74.86;102347.72;4892184;28;50087;-71
2022/01/01 03:06:34;;;;;;;;;60.25;46.75;;;;;12.23;74.83;102294.00;4892573;29;49622;-72
2022/01/01 03:09:00;;;;;;;;;52.50;39.75;;;;;12.17;74.82;102290.25;4887311;29;50346;-72
2022/01/01 03:11:25;;;;;;;;;54.25;44.00;;;;;12.45;75.03;102344.84;4893315;29;49626;-72
2022/01/01 03:13:50;;;;;;;;;60.50;47.50;;;;;12.42;75.16;102348.25;4893496;29;50126;-71
2022/01/01 03:16:16;;;;;;;;;58.00;48.25;;;;;12.21;75.43;102324.63;4893640;29;49943;-72
2022/01/01 03:18:41;;;;;;;;;59.25;46.75;;;;;12.22;75.10;102326.44;4893298;28;49766;-72
2022/01/01 03:21:07;;;;;;;;;53.00;42.75;;;;;12.35;75.51;102354.13;4893417;29;49811;-72
2022/01/01 03:23:33;;;;;;;;;61.00;50.00;;;;;12.07;75.67;102299.53;4893565;29;49760;-72
2022/01/01 03:25:59;;;;;;;;;42.75;36.75;;;;;11.89;76.05;102275.13;4896011;29;49868;-72
2022/01/01 03:28:25;;;;;;;;;51.75;42.00;;;;;12.31;76.05;102357.50;4893125;28;50351;-72
2022/01/01 03:30:51;;;;;;;;;48.50;38.75;;;;;12.30;75.74;102353.06;4907632;28;49795;-71
2022/01/01 03:33:16;;;;;;;;;43.50;37.50;;;;;12.31;75.36;102350.50;4893156;28;49662;-72
2022/01/01 03:35:41;;;;;;;;;46.25;38.00;;;;;12.14;75.44;102319.06;4893342;28;49793;-72
2022/01/01 03:38:07;;;;;;;;;49.75;41.25;;;;;12.28;75.40;102347.75;4907579;28;50386;-71
2022/01/01 03:40:32;;;;;;;;;55.25;42.75;;;;;12.11;75.55;102313.69;4893043;28;49755;-71
2022/01/01 03:42:58;;;;;;;;;64.25;50.50;;;;;12.23;75.97;102337.84;4894431;28;50014;-72
2022/01/01 03:45:23;;;;;;;;;58.00;46.50;;;;;12.17;76.00;102321.84;4895317;29;50201;-71
2022/01/01 03:47:48;;;;;;;;;52.50;40.75;;;;;12.12;76.06;102320.75;4894883;28;50084;-71
2022/01/01 03:50:14;;;;;;;;;51.00;41.50;;;;;11.90;75.78;102298.84;4896515;28;49849;-71
2022/01/01 03:52:44;;;;;;;;;51.25;41.75;;;;;12.09;76.09;102328.53;4896374;29;49735;-71
2022/01/01 03:55:11;;;;;;;;;50.50;41.50;;;;;12.15;75.98;102341.91;4896157;28;49784;-71
2022/01/01 03:57:36;;;;;;;;;44.00;38.00;;;;;12.14;76.26;102343.66;4896306;28;49913;-71
2022/01/01 04:00:05;;;;;;;;;52.00;43.25;;;;;12.11;76.05;102345.28;4896227;28;50044;-70
2022/01/01 04:02:31;;;;;;;;;49.75;41.00;;;;;12.10;76.27;102344.38;4895021;28;49874;-72
2022/01/01 04:04:57;;;;;;;;;53.00;41.25;;;;;11.64;75.97;102262.66;4896548;28;49645;-71
2022/01/01 04:07:22;;;;;;;;;38.75;35.50;;;;;12.09;76.21;102336.44;4894754;29;51374;-71
2022/01/01 04:09:47;;;;;;;;;41.75;36.75;;;;;12.03;76.48;102329.19;4895982;29;49953;-71
2022/01/01 04:12:13;;;;;;;;;41.25;35.75;;;;;11.99;76.58;102337.81;4896034;28;50045;-71
2022/01/01 04:14:38;;;;;;;;;51.00;34.25;;;;;11.89;76.54;102318.13;4896241;28;49602;-72
2022/01/01 04:17:03;;;;;;;;;39.75;35.25;;;;;11.97;76.50;102332.47;4895770;28;49914;-72
2022/01/01 04:19:39;;;;;;;;;40.25;37.00;;;;;11.76;76.48;102298.25;4896230;28;49977;-71
2022/01/01 04:22:14;;;;;;;;;39.75;34.00;;;;;11.97;76.19;102335.13;4894662;29;49907;-73
2022/01/01 04:24:41;;;;;;;;;52.25;42.25;;;;;11.97;76.23;102326.31;4896382;28;49979;-72
2022/01/01 04:27:07;;;;;;;;;46.50;38.50;;;;;11.96;75.99;102321.88;4883610;28;49859;-72
2022/01/01 04:29:33;;;;;;;;;42.50;36.50;;;;;11.91;76.26;102307.66;4883165;29;50021;-71
2022/01/01 04:32:00;;;;;;;;;44.50;36.25;;;;;11.87;76.45;102308.34;4895953;29;49983;-71
2022/01/01 04:34:26;;;;;;;;;42.50;37.00;;;;;11.91;76.19;102311.16;4896028;28;49966;-71
2022/01/01 04:37:04;;;;;;;;;46.75;40.75;;;;;11.90;76.46;102316.38;4895621;28;49839;-72
2022/01/01 04:39:30;;;;;;;;;39.50;36.75;;;;;11.90;76.48;102316.38;4895892;28;50024;-72
2022/01/01 04:41:55;;;;;;;;;46.00;38.25;;;;;11.84;76.43;102319.66;4882208;29;49800;-71
2022/01/01 04:44:21;;;;;;;;;37.00;34.75;;;;;11.85;76.45;102321.44;4877730;29;49971;-72
2022/01/01 04:46:46;;;;;;;;;39.25;33.75;;;;;11.84;76.45;102316.13;4877320;29;50356;-71
2022/01/01 04:49:11;;;;;;;;;74.75;57.00;;;;;11.65;76.20;102286.41;4877419;29;49990;-72
2022/01/01 04:51:37;;;;;;;;;41.50;34.50;;;;;11.37;76.78;102239.66;4877497;29;49815;-71
2022/01/01 04:54:02;;;;;;;;;37.25;35.50;;;;;11.77;76.29;102296.50;4878319;29;49728;-72
2022/01/01 04:56:32;;;;;;;;;43.50;35.75;;;;;11.80;76.32;102315.09;4877011;29;49953;-71
2022/01/01 04:58:57;;;;;;;;;32.50;31.25;;;;;11.84;76.49;102326.66;4877548;29;50046;-70
2022/01/01 05:01:23;;;;;;;;;37.50;30.00;;;;;11.83;76.45;102322.22;4880823;29;50087;-71
2022/01/01 05:03:48;;;;;;;;;36.50;34.00;;;;;11.81;76.22;102327.44;4876445;29;49936;-71
2022/01/01 05:06:14;;;;;;;;;37.75;34.25;;;;;11.80;76.54;102332.63;4883413;29;49929;-71
2022/01/01 05:08:39;;;;;;;;;37.75;33.50;;;;;11.79;76.43;102336.97;4877171;29;49781;-72
2022/01/01 05:11:05;;;;;;;;;38.50;34.75;;;;;11.75;76.74;102335.03;4878457;29;49907;-71
2022/01/01 05:13:31;;;;;;;;;26.25;26.25;;;;;11.69;76.95;102334.78;4877302;29;49705;-71
2022/01/01 05:15:56;;;;;;;;;40.00;34.00;;;;;11.34;76.36;102267.56;4876991;29;50693;-72
2022/01/01 05:18:22;;;;;;;;;35.00;32.00;;;;;11.54;76.89;102313.09;4877016;29;50121;-71
2022/01/01 05:20:48;;;;;;;;;32.00;30.00;;;;;11.71;76.79;102343.63;4877066;29;49767;-72
2022/01/01 05:23:14;;;;;;;;;30.50;27.50;;;;;11.69;76.76;102335.69;4877282;29;50150;-72
2022/01/01 05:25:39;;;;;;;;;124.00;97.00;;;;;11.68;76.87;102333.00;4876385;29;50324;-72
2022/01/01 05:28:05;;;;;;;;;52.75;45.00;;;;;11.67;76.67;102339.06;4876914;29;49716;-72
2022/01/01 05:30:30;;;;;;;;;32.00;29.50;;;;;11.55;76.77;102322.78;4876862;29;49726;-71
2022/01/01 05:32:58;;;;;;;;;47.25;35.75;;;;;11.62;77.06;102327.47;4876856;29;49847;-74
2022/01/01 05:35:23;;;;;;;;;48.75;39.00;;;;;11.43;76.82;102297.78;4889112;28;50556;-72
2022/01/01 05:37:49;;;;;;;;;39.75;37.00;;;;;11.54;76.96;102328.88;4883512;28;49914;-72
2022/01/01 05:40:15;;;;;;;;;48.00;37.25;;;;;11.46;77.10;102315.41;4876653;29;49804;-71
2022/01/01 05:42:40;;;;;;;;;34.00;32.00;;;;;11.46;76.86;102318.94;4876855;29;49868;-71
2022/01/01 05:45:06;;;;;;;;;40.25;35.25;;;;;11.49;76.83;102325.19;4876469;29;49718;-71
2022/01/01 05:47:32;;;;;;;;;27.50;26.00;;;;;11.27;76.83;102289.19;4876537;29;49675;-71
2022/01/01 05:49:58;;;;;;;;;33.75;31.25;;;;;11.44;76.88;102322.34;4888408;29;49747;-71
2022/01/01 05:52:23;;;;;;;;;46.25;37.75;;;;;11.22;76.50;102282.84;4876738;29;49772;-71
2022/01/01 05:54:49;;;;;;;;;29.00;26.75;;;;;11.29;76.77;102298.94;4876178;29;50899;-71
2022/01/01 05:57:14;;;;;;;;;43.25;37.50;;;;;11.42;77.08;102321.38;4877729;29;49708;-71
2022/01/01 05:59:41;;;;;;;;;33.50;30.25;;;;;11.40;76.66;102318.69;4876484;29;50263;-70
2022/01/01 06:02:07;;;;;;;;;40.75;35.25;;;;;11.37;76.67;102312.38;4876398;29;50549;-70
2022/01/01 06:04:32;;;;;;;;;58.75;43.75;;;;;11.21;76.63;102276.69;4876139;29;50453;-71
2022/01/01 06:06:57;;;;;;;;;53.75;37.50;;;;;11.09;77.24;102269.16;4874548;29;49952;-72
2022/01/01 06:09:23;;;;;;;;;53.00;37.50;;;;;11.34;76.58;102310.53;4894090;28;49781;-71
2022/01/01 06:11:48;;;;;;;;;54.25;45.00;;;;;11.34;76.94;102314.91;4876774;29;49662;-71
2022/01/01 06:14:16;;;;;;;;;33.00;31.25;;;;;11.32;76.51;102327.09;4876031;29;49737;-71
2022/01/01 06:16:41;;;;;;;;;31.00;25.50;;;;;11.25;76.72;102307.53;4876158;29;50090;-71
2022/01/01 06:19:06;;;;;;;;;35.75;31.50;;;;;11.32;76.49;102317.47;4876309;29;49741;-71
2022/01/01 06:21:32;;;;;;;;;121.00;100.00;;;;;11.31;76.39;102323.56;4876443;29;49759;-71
2022/01/01 06:23:57;;;;;;;;;128.00;109.00;;;;;11.16;76.18;102286.09;4875985;29;49709;-72
2022/01/01 06:26:22;;;;;;;;;89.67;72.67;;;;;11.13;76.12;102286.88;4875864;29;49717;-72
2022/01/01 06:28:48;;;;;;;;;52.75;40.75;;;;;10.96;76.27;102260.69;4882169;29;49696;-71
2022/01/01 06:31:13;;;;;;;;;54.75;43.25;;;;;11.03;76.37;102276.78;4876063;29;49757;-71
2022/01/01 06:33:38;;;;;;;;;52.75;40.00;;;;;11.27;75.95;102319.00;4876976;29;49577;-71
2022/01/01 06:36:04;;;;;;;;;34.50;30.75;;;;;11.21;75.88;102313.50;4875913;29;49737;-71
2022/01/01 06:38:29;;;;;;;;;41.25;34.00;;;;;11.12;76.06;102290.34;4875898;29;49810;-71
2022/01/01 06:40:55;;;;;;;;;25.00;23.75;;;;;10.94;76.38;102265.88;4875886;29;49615;-71
2022/01/01 06:43:23;;;;;;;;;27.75;24.25;;;;;11.12;76.37;102300.84;4899944;28;52748;-71
2022/01/01 06:45:48;;;;;;;;;150.67;132.67;;;;;11.00;76.46;102270.50;4888886;29;49922;-70
2022/01/01 06:48:14;;;;;;;;;56.25;45.75;;;;;11.19;76.12;102304.63;4881443;29;49230;-71
2022/01/01 06:50:39;;;;;;;;;41.00;33.00;;;;;11.17;76.10;102307.19;4883878;29;49823;-70
2022/01/01 06:53:04;;;;;;;;;71.25;56.75;;;;;11.09;76.24;102305.94;4896380;28;49574;-70
2022/01/01 06:55:30;;;;;;;;;69.50;55.75;;;;;11.15;75.93;102313.22;4894780;28;49840;-71
2022/01/01 06:57:55;;;;;;;;;32.50;25.75;;;;;11.13;76.23;102320.16;4897475;28;49953;-70
2022/01/01 07:00:21;;;;;;;;;29.50;29.50;;;;;11.09;75.89;102310.31;4909685;28;49360;-69
2022/01/01 07:02:47;;;;;;;;;31.25;28.75;;;;;11.03;75.55;102297.81;4900411;28;50378;-70
2022/01/01 07:05:14;;;;;;;;;34.50;31.25;;;;;11.06;75.80;102313.72;4881635;29;50028;-71
2022/01/01 07:07:40;;;;;;;;;31.00;29.75;;;;;11.04;75.60;102309.22;4879067;29;49615;-72
2022/01/01 07:12:58;;;;;;;;;36.25;33.50;;;;;10.82;76.20;102289.00;4888706;29;49931;-70
2022/01/01 07:15:23;;;;;;;;;34.75;29.75;;;;;10.87;75.92;102311.09;4883251;28;49721;-70
2022/01/01 07:17:49;;;;;;;;;36.50;35.00;;;;;10.88;76.10;102297.13;4877613;29;49824;-70
2022/01/01 07:20:15;;;;;;;;;39.75;35.00;;;;;10.78;76.89;102294.94;4884753;29;49854;-70
2022/01/01 07:22:45;;;;;;;;;45.00;38.50;;;;;10.36;75.76;102230.91;4893157;28;50409;-71
2022/01/01 07:25:12;;;;;;;;;41.25;33.75;;;;;10.85;76.12;102320.66;4892325;28;49625;-72
2022/01/01 07:27:38;;;;;;;;;43.25;37.50;;;;;10.60;75.88;102277.53;4893126;29;49859;-71
2022/01/01 07:30:06;;;;;;;;;40.50;33.00;;;;;10.76;76.20;102309.75;4893253;28;49995;-71
2022/01/01 07:32:31;;;;;;;;;40.50;35.50;;;;;10.65;76.70;102305.75;4893124;28;50344;-71
2022/01/01 07:34:57;;;;;;;;;32.00;29.00;;;;;10.41;76.67;102267.03;4884339;28;49850;-71
2022/01/01 07:37:22;;;;;;;;;37.00;32.50;;;;;10.69;76.63;102323.41;4876214;29;49733;-71
2022/01/01 07:39:47;;;;;;;;;31.50;29.75;;;;;10.51;76.46;102285.00;4875155;29;49606;-70
2022/01/01 07:42:13;;;;;;;;;35.00;32.00;;;;;10.29;76.66;102241.13;4878391;29;50223;-71
2022/01/01 07:44:39;;;;;;;;;52.50;42.25;;;;;10.62;76.21;102295.09;4891641;29;49931;-71
2022/01/01 07:47:05;;;;;;;;;40.00;37.50;;;;;9.88;76.35;102172.72;4884569;29;49756;-71
2022/01/01 07:49:31;;;;;;;;;38.50;37.50;;;;;10.67;76.55;102311.94;4880640;29;49989;-71
2022/01/01 07:51:56;;;;;;;;;35.25;30.00;;;;;10.64;76.60;102309.19;4891101;29;51612;-70
2022/01/01 07:54:22;;;;;;;;;35.75;31.75;;;;;9.64;76.12;102131.41;4890982;29;49956;-71
2022/01/01 07:56:47;;;;;;;;;39.75;29.75;;;;;9.21;76.66;102068.22;4901184;28;49777;-71
2022/01/01 07:59:12;;;;;;;;;37.00;33.00;;;;;10.61;76.31;102296.81;4884911;29;49791;-71
2022/01/01 08:01:38;;;;;;;;;57.25;43.50;;;;;10.16;76.44;102244.00;4888203;28;51016;-70
2022/01/01 08:04:03;;;;;;;;;37.50;35.00;;;;;10.55;76.64;102304.44;4891212;29;49860;-71
2022/01/01 08:06:30;;;;;;;;;32.00;30.25;;;;;9.67;76.70;102135.91;4879347;29;49728;-71
2022/01/01 08:08:55;;;;;;;;;39.50;35.50;;;;;10.30;76.53;102240.28;4880244;28;49806;-71
2022/01/01 08:11:20;;;;;;;;;29.50;28.25;;;;;9.31;76.32;102077.41;4886429;29;50762;-70
2022/01/01 08:13:46;;;;;;;;;42.75;36.25;;;;;10.48;76.56;102299.72;4883620;29;50309;-70
2022/01/01 08:16:11;;;;;;;;;26.50;23.75;;;;;9.49;76.42;102104.50;4879211;29;49949;-70
2022/01/01 08:18:36;;;;;;;;;43.25;37.25;;;;;9.57;76.69;102115.34;4877778;29;50083;-71
2022/01/01 08:21:02;;;;;;;;;43.25;38.00;;;;;9.02;76.71;102040.25;4889005;28;49729;-71
2022/01/01 08:23:27;;;;;;;;;55.00;41.25;;;;;10.44;76.85;102287.28;4895282;28;49793;-71
2022/01/01 08:25:55;;;;;;;;;51.25;43.25;;;;;9.94;76.59;102172.97;4888973;28;49699;-71
2022/01/01 08:28:21;;;;;;;;;36.50;32.50;;;;;9.15;76.43;102055.72;4893282;28;49633;-71
2022/01/01 08:30:46;;;;;;;;;75.25;60.50;;;;;9.47;76.70;102106.16;4878676;29;52764;-72
2022/01/01 08:33:12;;;;;;;;;57.00;45.75;;;;;9.43;76.25;102098.94;4879031;29;49757;-71
2022/01/01 08:35:37;;;;;;;;;45.50;38.50;;;;;9.39;76.49;102062.97;4882469;29;49869;-71
2022/01/01 08:38:04;;;;;;;;;53.50;43.25;;;;;10.00;76.46;102179.41;4877493;29;49844;-71
2022/01/01 08:40:31;;;;;;;;;42.25;35.50;;;;;10.46;76.48;102244.53;4877792;29;49947;-70
2022/01/01 08:42:57;;;;;;;;;27.50;26.25;;;;;9.68;76.36;102116.72;4881571;29;51133;-70
2022/01/01 08:45:24;;;;;;;;;36.75;34.75;;;;;9.46;76.48;102088.63;4899682;28;49812;-71
2022/01/01 08:47:49;;;;;;;;;60.75;45.75;;;;;9.61;76.12;102131.28;4884108;29;50036;-72
2022/01/01 08:50:14;;;;;;;;;30.75;28.00;;;;;9.32;75.80;102058.25;4895388;28;50350;-71
2022/01/01 08:52:43;;;;;;;;;30.75;25.75;;;;;10.79;76.03;102302.88;4888100;29;50288;-71
2022/01/01 08:55:08;;;;;;;;;26.75;26.75;;;;;9.49;76.02;102106.22;4892446;29;49703;-71
2022/01/01 08:57:34;;;;;;;;;27.25;24.75;;;;;10.52;76.04;102278.03;4895031;28;50124;-70
2022/01/01 09:00:01;;;;;;;;;29.00;27.50;;;;;10.62;75.83;102263.59;4880762;29;51189;-70
2022/01/01 09:02:27;;;;;;;;;20.75;19.00;;;;;9.95;76.13;102161.69;4889502;29;50095;-70
2022/01/01 09:04:54;;;;;;;;;33.25;28.50;;;;;10.51;76.11;102257.84;4895206;28;49879;-70
2022/01/01 09:07:20;;;;;;;;;33.25;31.00;;;;;11.01;75.54;102296.88;4895425;28;49847;-74
2022/01/01 09:09:45;;;;;;;;;33.75;31.50;;;;;9.85;75.33;102100.03;4894914;28;49636;-71
2022/01/01 09:12:11;;;;;;;;;45.50;39.00;;;;;9.90;75.48;102089.75;4895076;29;50157;-71
2022/01/01 09:14:38;;;;;;;;;45.50;39.25;;;;;10.38;74.82;102140.00;4893828;28;50075;-71
2022/01/01 09:17:06;;;;;;;;;33.50;28.25;;;;;9.75;74.97;102040.13;4895193;29;50040;-71
2022/01/01 09:19:31;;;;;;;;;33.25;31.00;;;;;9.68;74.81;101993.50;4909373;28;51265;-71
2022/01/01 09:21:56;;;;;;;;;34.00;29.25;;;;;10.07;74.64;102053.75;4894922;28;49883;-71
2022/01/01 09:24:22;;;;;;;;;37.50;30.25;;;;;10.55;74.71;102112.75;4895037;29;49744;-72
2022/01/01 09:26:47;;;;;;;;;31.00;28.50;;;;;9.95;74.39;102001.66;4895040;28;49611;-71
2022/01/01 09:29:13;;;;;;;;;34.00;29.00;;;;;10.48;73.69;102073.91;4893245;28;51307;-71
2022/01/01 09:31:40;;;;;;;;;31.00;27.75;;;;;10.43;74.05;102063.25;4894749;28;49983;-71
2022/01/01 09:34:06;;;;;;;;;36.25;33.75;;;;;11.47;73.99;102240.94;4894785;28;49668;-71
2022/01/01 09:36:32;;;;;;;;;23.50;23.25;;;;;11.36;73.63;102236.97;4894858;28;50026;-71
2022/01/01 09:38:57;;;;;;;;;24.50;21.00;;;;;11.61;73.93;102273.06;4894584;28;49895;-70
2022/01/01 09:41:23;;;;;;;;;23.75;22.00;;;;;11.42;73.24;102232.88;4893305;28;49830;-70
2022/01/01 09:43:50;;;;;;;;;20.75;19.75;;;;;10.20;73.33;102009.72;4894703;28;49646;-70
2022/01/01 09:46:15;;;;;;;;;26.25;22.75;;;;;10.72;73.16;102063.56;4895017;28;49927;-70
2022/01/01 09:48:41;;;;;;;;;22.50;17.75;;;;;11.44;73.16;102190.84;4886706;28;50455;-70
2022/01/01 09:51:08;;;;;;;;;21.50;21.25;;;;;11.41;72.80;102185.50;4885063;28;49804;-70
2022/01/01 09:53:34;;;;;;;;;21.25;21.00;;;;;11.42;72.83;102200.44;4887196;29;49889;-71
2022/01/01 09:56:01;;;;;;;;;18.75;17.00;;;;;11.88;72.74;102253.16;4894299;29;49987;-70
2022/01/01 09:58:29;;;;;;;;;19.75;18.50;;;;;11.78;72.22;102229.03;4894350;28;49954;-70
2022/01/01 10:00:55;;;;;;;;;18.00;17.75;;;;;11.98;72.44;102238.63;4906804;28;49662;-70
2022/01/01 10:03:37;;;;;;;;;18.00;18.00;;;;;11.79;72.00;102197.53;4900175;28;49881;-70
2022/01/01 10:06:08;;;;;;;;;17.25;15.75;;;;;11.88;72.07;102231.22;4897987;28;50002;-73
2022/01/01 10:08:37;;;;;;;;;16.50;16.00;;;;;10.65;71.09;102022.09;4892624;28;50530;-69
2022/01/01 10:11:03;;;;;;;;;18.00;17.50;;;;;12.11;71.55;102245.25;4896440;28;49695;-70
2022/01/01 10:13:31;;;;;;;;;19.25;17.75;;;;;11.90;71.05;102209.38;4893455;28;49743;-72
2022/01/01 10:15:58;;;;;;;;;19.25;17.50;;;;;11.49;70.74;102134.09;4894157;28;49827;-72
2022/01/01 10:18:28;;;;;;;;;10.00;10.00;;;;;11.67;70.27;102147.94;4893982;28;49807;-80
2022/01/01 10:21:03;;;;;;;;;20.25;18.00;;;;;12.29;71.00;102243.31;4915359;28;49890;-69
2022/01/01 10:23:30;;;;;;;;;19.75;15.50;;;;;11.51;70.09;102144.69;4898176;28;49785;-72
2022/01/01 10:29:13;;;;;;;;;17.25;16.00;;;;;11.70;70.00;102123.50;4893559;28;50250;-74
2022/01/01 10:31:51;;;;;;;;;15.00;14.75;;;;;10.91;69.23;102012.66;4893973;28;49619;-71
2022/01/01 10:34:16;;;;;;;;;18.50;18.00;;;;;11.98;68.94;102192.16;4908466;28;49755;-71
2022/01/01 10:36:47;;;;;;;;;15.25;13.75;;;;;11.95;68.58;102170.06;4894629;28;50030;-71
2022/01/01 10:39:18;;;;;;;;;9.00;7.75;;;;;12.32;68.88;102207.44;4895846;28;49817;-68
2022/01/01 10:41:50;;;;;;;;;16.50;15.75;;;;;11.89;69.16;102127.75;4908585;28;49977;-72
2022/01/01 10:44:21;;;;;;;;;12.75;12.75;;;;;12.23;68.80;102177.25;4881925;28;49857;-72
2022/01/01 10:46:46;;;;;;;;;14.75;13.00;;;;;12.49;69.21;102215.06;4891739;29;49809;-79
2022/01/01 10:52:19;;;;;;;;;16.50;16.50;;;;;12.11;67.95;102154.00;4888117;28;49842;-73
2022/01/01 10:55:05;;;;;;;;;17.00;17.00;;;;;11.36;68.36;102014.41;4898605;28;49773;-69
2022/01/01 10:57:41;;;;;;;;;16.25;16.25;;;;;12.87;68.21;102253.31;4887592;28;50079;-72
2022/01/01 11:00:39;;;;;;;;;16.25;14.50;;;;;12.88;67.96;102253.38;4879053;29;49852;-65
2022/01/01 11:03:10;;;;;;;;;15.75;15.00;;;;;12.84;67.92;102242.69;4878151;29;49927;-65
2022/01/01 11:05:38;;;;;;;;;13.75;13.75;;;;;13.00;67.60;102246.72;4884653;29;49765;-66
2022/01/01 11:08:06;;;;;;;;;15.50;15.50;;;;;12.81;67.39;102213.56;4892855;29;49582;-67
2022/01/01 11:10:32;;;;;;;;;12.75;11.75;;;;;12.08;67.07;102092.47;4908134;28;51863;-72
2022/01/01 11:12:59;;;;;;;;;12.50;10.50;;;;;11.62;66.95;102004.84;4907645;28;49716;-74
2022/01/01 11:15:25;;;;;;;;;14.00;14.00;;;;;12.52;66.90;102142.31;4893409;28;49883;-71